GMTN

Details ICAO GMTN (TTU)
Name SANIAT RMEL
Region Morocco
Timezone Africa/Casablanca (UTC+0.0)
Plans Departing 8
Arriving 14
Stats Elevation 10 ft / 3 m (AMSL)
Location 35.594333° -5.320019°
Runways 1
Magnetic Variation 1.065° W
Sunrise 2018-05-21 05:13:47 UTC / 2018-05-21 05:13:47 Local
Sunset 2018-05-21 19:24:49 UTC / 2018-05-21 19:24:49 Local
Advertisement - Login to hide

Runways

ID Width Length Bearing (true) Bearing (mag) Surface Threshold Offset Overrun Length
06 148 ft / 45 m 7,553 ft / 2,302 m 54.30° 55.37° Concrete 0 ft / 0 m 197 ft / 60 m
24 148 ft / 45 m 7,553 ft / 2,302 m 234.31° 235.38° Concrete 0 ft / 0 m 0 ft / 0 m

Map

Weather


0- 5 10 15 20 25 30 35+ Temperature / ° C

Clouds and Precipitation
Forecast for 2018-05-21 12:00 UTC. Updated 2 hours ago

Ground ~20,000 ft ~40,000 ft Winds

METAR

GMTN 211300Z 09008KT 040V120 8000 SCT016 FEW020CB 22/14 Q1013 NOSIG

TAF

Not found

Frequencies

Tower 119.00 MHz TETOUAN TWR
Warning: Do not use this data for real-world aviation or navigation. No guarantee of current accuracy is given.